• Join FlightAware (Why Join?)
  • Login
  • US Flag 
12:22AM EDT


 

Airport Tracker/Info


-or-


 

Live Flight TrackerFlight Track Log ✈ PDT4462 ✈ 18-Jun-2013 ✈ KCLT - KAGS

Flight Track Log - Related Links

Times and Time Zones

All times are in EDT time to prevent confusion due to time zone crossing. See the PDT4462 flight status page for this flight to view local times or setup timezone preferences in your user account.

Time Position Orientation Groundspeed Altitude Reporting Facility
EDT Latitude Longitude Course Direction KTS MPH feet Rate Location/Type
01:16PM 35.1975 -80.9558 249° West 133 153 1,400  Level Atlanta Center
01:17PM 35.1908 -81.0169 262° West 163 188 3,100 1,260 Climbing Atlanta Center
01:18PM 35.1167 -81.1661 270° West  Level FlightAware Approximate
01:18PM 35.1753 -81.0658 249° West 149 171 4,500  Level Atlanta Center
01:19PM 35.0889 -81.2446 253° West  Level FlightAware Approximate
01:19PM 35.1536 -81.1150 242° Southwest 149 171 5,900  Level Atlanta Center
01:20PM 35.0682 -81.3270 253° West  Level FlightAware Approximate
01:20PM 35.1358 -81.1586 244° Southwest 151 174 7,100  Level Atlanta Center
01:21PM 35.0435 -81.4077 249° West  Level FlightAware Approximate
01:21PM 35.1244 -81.2097 255° West 154 177 8,300  Level Atlanta Center
01:22PM 35.1150 -81.2583 257° West 157 181 9,200 840 Climbing Atlanta Center
01:23PM 35.0972 -81.3022 244° Southwest 151 174 10,000 840 Climbing Atlanta Center
01:25PM 35.0457 -81.4005 249° West  Level FlightAware Approximate
01:32PM 34.8704 -81.7381 132° Southeast  Level FlightAware Approximate
01:33PM 34.8299 -81.6840 132° Southeast  Level FlightAware Approximate
01:34PM 34.7893 -81.6300 132° Southeast  Level FlightAware Approximate
01:35PM 34.7488 -81.5760 132° Southeast  Level FlightAware Approximate
01:36PM 34.7046 -81.5374 195° South  Level FlightAware Approximate
01:37PM 34.6467 -81.5567 195° South  Level FlightAware Approximate
01:38PM 34.5887 -81.5761 195° South  Level FlightAware Approximate
01:39PM 34.5308 -81.5954 195° South  Level FlightAware Approximate
01:40PM 34.4729 -81.6147 195° South  Level FlightAware Approximate
01:41PM 34.4149 -81.6340 195° South  Level FlightAware Approximate
01:42PM 34.3569 -81.6528 193° South  Level FlightAware Approximate
01:43PM 34.2984 -81.6695 193° South  Level FlightAware Approximate
01:44PM 34.2400 -81.6862 193° South  Level FlightAware Approximate
01:45PM 34.1815 -81.7029 193° South  Level FlightAware Approximate
01:46PM 34.1231 -81.7198 194° South  Level FlightAware Approximate
01:47PM 34.0648 -81.7373 194° South  Level FlightAware Approximate
01:48PM 34.0064 -81.7548 194° South  Level FlightAware Approximate
01:49PM 33.9520 -81.7814 220° Southwest  Level FlightAware Approximate
01:50PM 33.8937 -81.7952 194° South  Level FlightAware Approximate
01:51PM 33.8354 -81.8127 194° South  Level FlightAware Approximate
01:52PM 33.7771 -81.8302 194° South  Level FlightAware Approximate
01:53PM 33.7188 -81.8477 194° South  Level FlightAware Approximate
01:54PM 33.6605 -81.8652 194° South  Level FlightAware Approximate
01:55PM 33.6022 -81.8827 194° South  Level FlightAware Approximate
01:56PM 33.5430 -81.8947 189° South  Level FlightAware Approximate
01:57PM 33.4975 -81.9205 189° South  Level FlightAware Approximate